createdAt,value
2022-09-14T00:01:26.642Z,101116.00
2022-09-14T00:03:56.511Z,101121.13
2022-09-14T00:06:23.687Z,101114.78
2022-09-14T00:08:55.089Z,101120.91
2022-09-14T00:11:23.399Z,101113.19
2022-09-14T00:13:50.989Z,101117.06
2022-09-14T00:16:25.162Z,101113.84
2022-09-14T00:18:56.627Z,101103.03
2022-09-14T00:21:24.202Z,101100.19
2022-09-14T00:23:50.950Z,101093.84
2022-09-14T00:26:20.460Z,101108.72
2022-09-14T00:28:56.562Z,101094.00
2022-09-14T00:31:23.957Z,101098.91
2022-09-14T00:33:51.471Z,101096.47
2022-09-14T00:36:24.304Z,101086.91
2022-09-14T00:38:51.963Z,101084.03
2022-09-14T00:41:23.102Z,101080.78
2022-09-14T00:44:24.867Z,101074.63
2022-09-14T00:46:54.892Z,101071.00
2022-09-14T00:49:24.898Z,101061.63
2022-09-14T00:52:08.787Z,101062.25
2022-09-14T00:54:42.197Z,101063.63
2022-09-14T00:57:08.736Z,101060.78
2022-09-14T00:59:39.088Z,101059.59
2022-09-14T01:02:09.222Z,101054.28
2022-09-14T01:04:36.731Z,101053.25
2022-09-14T01:07:22.192Z,101051.63
2022-09-14T01:09:48.560Z,101045.69
2022-09-14T01:12:33.723Z,101038.34
2022-09-14T01:15:38.764Z,101037.75
2022-09-14T01:18:08.380Z,101038.56
2022-09-14T01:21:02.433Z,101026.94
2022-09-14T01:23:45.303Z,101025.66
2022-09-14T01:26:23.949Z,101025.09
2022-09-14T01:28:59.649Z,101037.09
2022-09-14T01:31:35.233Z,101032.81
2022-09-14T01:34:31.876Z,101027.34
2022-09-14T01:37:12.907Z,101028.75
2022-09-14T01:39:44.996Z,101022.63
2022-09-14T01:42:13.647Z,101022.84
2022-09-14T01:44:45.370Z,101015.47
2022-09-14T01:47:20.418Z,101021.41
2022-09-14T01:49:55.801Z,101018.97
2022-09-14T01:52:35.103Z,101019.56
2022-09-14T01:55:10.527Z,101019.34
2022-09-14T01:57:44.670Z,101016.91
2022-09-14T02:00:19.114Z,101011.59
2022-09-14T02:02:58.812Z,101008.56
2022-09-14T02:05:55.537Z,101012.25
2022-09-14T02:08:22.431Z,101010.16
2022-09-14T02:10:48.991Z,101002.00
2022-09-14T02:13:15.669Z,100995.09
2022-09-14T02:15:42.151Z,101001.00
2022-09-14T02:18:08.689Z,101005.78
2022-09-14T02:20:48.904Z,100997.66
2022-09-14T02:23:16.053Z,100996.41
2022-09-14T02:25:42.565Z,100990.53
2022-09-14T02:28:09.153Z,100992.75
2022-09-14T02:30:52.461Z,100995.19
2022-09-14T02:33:23.054Z,100993.59
2022-09-14T02:36:00.773Z,100987.34
2022-09-14T02:38:50.735Z,100988.13
2022-09-14T02:41:26.022Z,100980.78
2022-09-14T02:44:20.216Z,100979.00
2022-09-14T02:47:24.016Z,100968.41
2022-09-14T02:50:11.906Z,100967.75
2022-09-14T02:53:07.464Z,100959.44
2022-09-14T02:55:38.016Z,100959.06
2022-09-14T02:58:14.768Z,100958.84
2022-09-14T03:00:50.881Z,100964.88
2022-09-14T03:03:20.948Z,100954.88
2022-09-14T03:05:47.607Z,100957.78
2022-09-14T03:08:14.228Z,100953.69
2022-09-14T03:10:44.251Z,100948.81
2022-09-14T03:13:11.624Z,100945.56
2022-09-14T03:15:38.161Z,100952.91
2022-09-14T03:18:06.315Z,100952.50
2022-09-14T03:20:34.175Z,100961.84
2022-09-14T03:23:01.929Z,100957.97
2022-09-14T03:25:28.831Z,100951.63
2022-09-14T03:27:57.748Z,100945.56
2022-09-14T03:30:24.948Z,100942.91
2022-09-14T03:32:51.720Z,100932.50
2022-09-14T03:35:18.769Z,100923.13
2022-09-14T03:37:46.246Z,100922.16
2022-09-14T03:40:20.799Z,100921.53
2022-09-14T03:42:50.016Z,100932.75
2022-09-14T03:45:17.797Z,100931.53
2022-09-14T03:47:44.424Z,100935.97
2022-09-14T03:50:12.576Z,100930.47
2022-09-14T03:52:39.726Z,100915.94
2022-09-14T03:55:08.129Z,100914.38
2022-09-14T03:57:34.731Z,100918.50
2022-09-14T04:00:01.352Z,100913.84
2022-09-14T04:02:29.485Z,100913.00
2022-09-14T04:04:56.236Z,100909.31
2022-09-14T04:07:22.649Z,100902.59
2022-09-14T04:09:49.253Z,100911.75
2022-09-14T04:12:15.682Z,100909.72
2022-09-14T04:14:42.162Z,100900.34
2022-09-14T04:17:08.627Z,100908.09
2022-09-14T04:19:37.504Z,100902.19
2022-09-14T04:22:05.206Z,100899.34
2022-09-14T04:24:31.763Z,100897.91
2022-09-14T04:26:58.846Z,100894.66
2022-09-14T04:29:25.760Z,100902.81
2022-09-14T04:31:52.314Z,100901.63
2022-09-14T04:34:18.713Z,100895.72
2022-09-14T04:36:45.137Z,100887.19
2022-09-14T04:39:13.749Z,100891.66
2022-09-14T04:41:40.561Z,100902.28
2022-09-14T04:44:07.086Z,100899.78
2022-09-14T04:46:43.602Z,100896.91
2022-09-14T04:49:13.010Z,100890.03
2022-09-14T04:51:39.655Z,100889.03
2022-09-14T04:54:07.359Z,100888.78
2022-09-14T04:56:35.989Z,100886.78
2022-09-14T04:59:04.401Z,100870.06
2022-09-14T05:01:37.566Z,100861.66
2022-09-14T05:04:05.200Z,100869.63
2022-09-14T05:06:34.476Z,100884.94
2022-09-14T05:09:02.130Z,100884.53
2022-09-14T05:11:34.593Z,100884.53
2022-09-14T05:14:01.979Z,100885.75
2022-09-14T05:16:31.580Z,100882.50
2022-09-14T05:19:04.063Z,100883.09
2022-09-14T05:21:32.271Z,100886.41
2022-09-14T05:24:01.075Z,100889.44
2022-09-14T05:26:29.190Z,100899.22
2022-09-14T05:28:56.517Z,100888.44
2022-09-14T05:31:24.631Z,100892.53
2022-09-14T05:33:50.994Z,100897.81
2022-09-14T05:36:17.696Z,100894.97
2022-09-14T05:38:44.506Z,100897.00
2022-09-14T05:41:13.028Z,100893.53
2022-09-14T05:43:40.351Z,100894.50
2022-09-14T05:46:13.618Z,100890.63
2022-09-14T05:48:41.133Z,100887.78
2022-09-14T05:51:16.587Z,100883.91
2022-09-14T05:53:53.590Z,100885.91
2022-09-14T05:56:21.836Z,100882.25
2022-09-14T05:58:48.758Z,100873.28
2022-09-14T06:01:16.310Z,100875.94
2022-09-14T06:03:43.680Z,100885.72
2022-09-14T06:06:13.068Z,100877.94
2022-09-14T06:08:40.114Z,100878.72
2022-09-14T06:11:11.404Z,100885.19
2022-09-14T06:13:37.924Z,100880.28
2022-09-14T06:16:06.391Z,100880.28
2022-09-14T06:18:34.364Z,100888.03
2022-09-14T06:21:01.408Z,100890.63
2022-09-14T06:23:28.778Z,100888.59
2022-09-14T06:25:56.532Z,100894.13
2022-09-14T06:28:24.526Z,100896.53
2022-09-14T06:30:51.337Z,100893.22
2022-09-14T06:33:18.393Z,100893.81
2022-09-14T06:35:55.676Z,100892.78
2022-09-14T06:38:22.348Z,100894.72
2022-09-14T06:40:59.430Z,100889.56
2022-09-14T06:43:27.704Z,100885.28
2022-09-14T06:46:01.684Z,100887.91
2022-09-14T06:48:30.804Z,100881.34
2022-09-14T06:50:57.826Z,100873.31
2022-09-14T06:53:24.952Z,100879.38
2022-09-14T06:55:51.814Z,100886.75
2022-09-14T06:58:19.891Z,100891.34
2022-09-14T07:00:46.408Z,100883.41
2022-09-14T07:03:12.920Z,100886.06
2022-09-14T07:05:39.386Z,100892.59
2022-09-14T07:08:10.167Z,100890.59
2022-09-14T07:10:38.600Z,100886.53
2022-09-14T07:13:05.082Z,100881.47
2022-09-14T07:15:31.519Z,100881.03
2022-09-14T07:17:58.937Z,100885.94
2022-09-14T07:20:25.478Z,100880.22
2022-09-14T07:22:52.008Z,100881.59
2022-09-14T07:25:18.448Z,100880.13
2022-09-14T07:27:44.951Z,100878.69
2022-09-14T07:30:12.554Z,100883.34
2022-09-14T07:32:38.959Z,100886.09
2022-09-14T07:35:06.223Z,100887.22
2022-09-14T07:37:32.749Z,100887.38
2022-09-14T07:39:59.428Z,100880.66
2022-09-14T07:42:25.872Z,100872.53
2022-09-14T07:44:52.364Z,100876.81
2022-09-14T07:47:18.892Z,100876.16
2022-09-14T07:49:45.477Z,100869.97
2022-09-14T07:52:11.941Z,100876.94
2022-09-14T07:54:38.427Z,100869.13
2022-09-14T07:57:04.988Z,100882.09
2022-09-14T07:59:35.958Z,100879.59
2022-09-14T08:02:07.041Z,100881.59
2022-09-14T08:04:39.405Z,100876.47
2022-09-14T08:07:06.411Z,100871.78
2022-09-14T08:09:33.275Z,100881.28
2022-09-14T08:12:00.510Z,100874.50
2022-09-14T08:14:26.975Z,100877.22
2022-09-14T08:16:53.500Z,100879.69
2022-09-14T08:19:20.859Z,100873.91
2022-09-14T08:21:48.199Z,100874.28
2022-09-14T08:24:17.628Z,100874.06
2022-09-14T08:26:44.426Z,100864.59
2022-09-14T08:29:13.110Z,100862.09
2022-09-14T08:31:41.057Z,100868.47
2022-09-14T08:34:08.166Z,100876.63
2022-09-14T08:36:37.210Z,100881.03
2022-09-14T08:39:06.146Z,100870.28
2022-09-14T08:41:43.574Z,100865.56
2022-09-14T08:44:09.952Z,100855.50
2022-09-14T08:46:43.783Z,100845.34
2022-09-14T08:49:19.388Z,100844.44
2022-09-14T08:51:46.268Z,100845.38
2022-09-14T08:54:12.930Z,100847.13
2022-09-14T08:56:47.183Z,100841.13
2022-09-14T08:59:17.145Z,100842.75
2022-09-14T09:02:04.845Z,100836.75
2022-09-14T09:04:56.391Z,100838.28
2022-09-14T09:08:04.012Z,100845.25
2022-09-14T09:10:32.775Z,100844.41
2022-09-14T09:13:05.610Z,100844.56
2022-09-14T09:15:53.057Z,100847.13
2022-09-14T09:18:29.322Z,100849.78
2022-09-14T09:21:01.770Z,100843.84
2022-09-14T09:23:30.652Z,100846.31
2022-09-14T09:26:17.008Z,100846.53
2022-09-14T09:28:52.243Z,100852.56
2022-09-14T09:31:24.732Z,100844.69
2022-09-14T09:33:51.276Z,100848.84
2022-09-14T09:36:18.420Z,100846.44
2022-09-14T09:38:44.965Z,100840.28
2022-09-14T09:41:20.791Z,100828.59
2022-09-14T09:44:09.340Z,100827.66
2022-09-14T09:46:45.601Z,100826.28
2022-09-14T09:49:22.728Z,100837.94
2022-09-14T09:51:50.979Z,100838.41
2022-09-14T09:54:29.940Z,100836.91
2022-09-14T09:57:05.302Z,100835.88
2022-09-14T09:59:39.528Z,100842.22
2022-09-14T10:02:31.644Z,100837.69
2022-09-14T10:05:07.136Z,100836.91
2022-09-14T10:07:51.891Z,100836.34
2022-09-14T10:10:23.765Z,100841.41
2022-09-14T10:12:54.136Z,100837.22
2022-09-14T10:15:28.625Z,100835.38
2022-09-14T10:18:13.483Z,100837.09
2022-09-14T10:20:44.548Z,100840.09
2022-09-14T10:23:20.182Z,100828.50
2022-09-14T10:25:48.489Z,100831.97
2022-09-14T10:28:30.438Z,100826.53
2022-09-14T10:31:01.655Z,100825.25
2022-09-14T10:33:29.784Z,100820.84
2022-09-14T10:36:13.244Z,100820.97
2022-09-14T10:38:46.004Z,100823.97
2022-09-14T10:41:48.122Z,100820.03
2022-09-14T10:44:36.151Z,100825.13
2022-09-14T10:47:13.132Z,100818.34
2022-09-14T10:49:57.973Z,100817.06
2022-09-14T10:52:36.611Z,100817.53
2022-09-14T10:55:06.043Z,100811.13
2022-09-14T10:57:57.580Z,100811.03
2022-09-14T11:00:24.208Z,100812.75
2022-09-14T11:02:56.158Z,100817.69
2022-09-14T11:05:27.656Z,100818.88
2022-09-14T11:08:31.202Z,100818.75
2022-09-14T11:11:30.631Z,100826.59
2022-09-14T11:14:22.509Z,100808.81
2022-09-14T11:17:23.435Z,100820.28
2022-09-14T11:19:52.928Z,100817.78
2022-09-14T11:22:36.929Z,100819.50
2022-09-14T11:25:42.387Z,100822.09
2022-09-14T11:28:40.176Z,100826.06
2022-09-14T11:31:06.696Z,100821.53
2022-09-14T11:33:43.662Z,100823.72
2022-09-14T11:36:16.699Z,100825.31
2022-09-14T11:38:49.917Z,100824.84
2022-09-14T11:41:35.730Z,100819.19
2022-09-14T11:44:11.185Z,100818.38
2022-09-14T11:46:49.380Z,100815.94
2022-09-14T11:49:27.672Z,100812.88
2022-09-14T11:52:00.915Z,100807.56
2022-09-14T11:54:27.632Z,100809.31
2022-09-14T11:57:01.734Z,100811.91
2022-09-14T11:59:40.454Z,100814.56
2022-09-14T12:02:25.285Z,100818.44
2022-09-14T12:05:10.609Z,100817.28
2022-09-14T12:07:39.821Z,100808.34
2022-09-14T12:10:15.709Z,100809.84
2022-09-14T12:12:58.524Z,100806.38
2022-09-14T12:15:24.973Z,100802.38
2022-09-14T12:18:06.722Z,100795.75
2022-09-14T12:20:53.114Z,100797.53
2022-09-14T12:23:39.127Z,100800.91
2022-09-14T12:26:11.900Z,100806.88
2022-09-14T12:28:43.567Z,100801.56
2022-09-14T12:31:31.947Z,100802.94
2022-09-14T12:34:30.290Z,100793.06
2022-09-14T12:36:59.257Z,100802.09
2022-09-14T12:39:27.012Z,100795.16
2022-09-14T12:41:53.399Z,100794.97
2022-09-14T12:44:40.909Z,100787.84
2022-09-14T12:47:25.848Z,100777.31
2022-09-14T12:49:54.043Z,100777.19
2022-09-14T12:52:35.849Z,100774.53
2022-09-14T12:55:07.491Z,100775.38
2022-09-14T12:57:45.202Z,100777.09
2022-09-14T13:00:16.817Z,100765.75
2022-09-14T13:03:17.948Z,100764.91
2022-09-14T13:05:45.587Z,100758.19
2022-09-14T13:08:17.314Z,100756.16
2022-09-14T13:10:49.320Z,100755.22
2022-09-14T13:13:22.165Z,100752.59
2022-09-14T13:15:59.134Z,100756.16
2022-09-14T13:18:39.168Z,100757.03
2022-09-14T13:21:19.441Z,100750.88
2022-09-14T13:23:46.239Z,100753.16
2022-09-14T13:26:20.669Z,100751.09
2022-09-14T13:28:49.642Z,100742.56
2022-09-14T13:31:36.167Z,100745.00
2022-09-14T13:34:05.232Z,100746.56
2022-09-14T13:36:43.479Z,100746.56
2022-09-14T13:39:29.565Z,100743.84
2022-09-14T13:41:56.700Z,100741.31
2022-09-14T13:44:30.511Z,100740.28
2022-09-14T13:46:57.995Z,100738.16
2022-09-14T13:49:24.858Z,100733.84
2022-09-14T13:51:51.394Z,100736.50
2022-09-14T13:54:20.244Z,100736.09
2022-09-14T13:56:47.364Z,100743.31
2022-09-14T13:59:17.113Z,100735.72
2022-09-14T14:01:46.582Z,100733.72
2022-09-14T14:04:26.446Z,100732.03
2022-09-14T14:07:19.731Z,100734.00
2022-09-14T14:09:50.972Z,100734.16
2022-09-14T14:12:29.489Z,100725.50
2022-09-14T14:15:00.226Z,100731.28
2022-09-14T14:17:29.702Z,100730.38
2022-09-14T14:19:59.012Z,100727.16
2022-09-14T14:22:35.502Z,100722.69
2022-09-14T14:25:18.327Z,100718.06
2022-09-14T14:27:47.643Z,100713.28
2022-09-14T14:30:17.749Z,100712.84
2022-09-14T14:32:49.074Z,100707.25
2022-09-14T14:35:18.632Z,100701.94
2022-09-14T14:37:45.026Z,100707.00
2022-09-14T14:40:12.682Z,100713.44
2022-09-14T14:42:39.371Z,100704.50
2022-09-14T14:45:07.081Z,100701.06
2022-09-14T14:47:33.639Z,100697.47
2022-09-14T14:50:00.248Z,100694.88
2022-09-14T14:52:26.899Z,100686.88
2022-09-14T14:54:53.365Z,100689.88
2022-09-14T14:57:19.816Z,100691.06
2022-09-14T14:59:47.068Z,100680.53
2022-09-14T15:02:13.512Z,100681.88
2022-09-14T15:04:39.971Z,100680.59
2022-09-14T15:07:06.503Z,100676.50
2022-09-14T15:09:33.431Z,100678.09
2022-09-14T15:12:00.119Z,100678.41
2022-09-14T15:14:27.797Z,100670.00
2022-09-14T15:16:57.936Z,100669.94
2022-09-14T15:19:24.825Z,100665.16
2022-09-14T15:21:51.371Z,100659.59
2022-09-14T15:24:18.023Z,100655.81
2022-09-14T15:26:44.417Z,100660.59
2022-09-14T15:29:13.605Z,100658.50
2022-09-14T15:31:40.830Z,100654.50
2022-09-14T15:34:07.308Z,100658.78
2022-09-14T15:36:52.611Z,100664.16
2022-09-14T15:39:29.689Z,100662.00
2022-09-14T15:41:56.791Z,100663.88
2022-09-14T15:44:23.656Z,100656.63
2022-09-14T15:46:50.644Z,100656.09
2022-09-14T15:49:20.609Z,100664.38
2022-09-14T15:51:48.664Z,100673.44
2022-09-14T15:54:15.828Z,100668.88
2022-09-14T15:56:42.262Z,100676.63
2022-09-14T15:59:09.117Z,100674.75
2022-09-14T16:01:36.656Z,100675.31
2022-09-14T16:04:09.634Z,100676.91
2022-09-14T16:06:39.061Z,100675.53
2022-09-14T16:09:07.552Z,100684.56
2022-09-14T16:11:35.372Z,100677.56
2022-09-14T16:14:02.068Z,100686.59
2022-09-14T16:16:28.824Z,100694.88
2022-09-14T16:18:55.739Z,100696.97
2022-09-14T16:21:24.952Z,100700.41
2022-09-14T16:23:57.853Z,100705.72
2022-09-14T16:26:27.345Z,100704.59
2022-09-14T16:28:54.873Z,100708.88
2022-09-14T16:31:30.267Z,100715.75
2022-09-14T16:33:59.554Z,100708.78
2022-09-14T16:36:28.587Z,100713.03
2022-09-14T16:39:02.891Z,100710.25
2022-09-14T16:41:31.242Z,100722.47
2022-09-14T16:43:59.282Z,100709.28
2022-09-14T16:46:27.521Z,100705.91
2022-09-14T16:48:55.174Z,100712.53
2022-09-14T16:51:23.674Z,100710.84
2022-09-14T16:53:51.739Z,100714.81
2022-09-14T16:56:24.807Z,100713.41
2022-09-14T16:58:53.648Z,100709.59
2022-09-14T17:01:53.582Z,100707.63
2022-09-14T17:04:22.057Z,100707.00
2022-09-14T17:06:50.495Z,100705.88
2022-09-14T17:09:28.842Z,100706.69
2022-09-14T17:11:56.905Z,100705.81
2022-09-14T17:14:30.055Z,100709.78
2022-09-14T17:16:57.477Z,100720.22
2022-09-14T17:19:24.775Z,100720.47
2022-09-14T17:21:51.850Z,100718.88
2022-09-14T17:24:20.032Z,100724.22
2022-09-14T17:26:47.150Z,100729.22
2022-09-14T17:29:14.111Z,100730.47
2022-09-14T17:31:42.824Z,100725.94
2022-09-14T17:34:11.626Z,100731.50
2022-09-14T17:36:38.353Z,100726.69
2022-09-14T17:39:10.669Z,100737.34
2022-09-14T17:41:39.064Z,100739.19
2022-09-14T17:44:07.181Z,100736.72
2022-09-14T17:46:34.062Z,100739.31
2022-09-14T17:49:03.610Z,100750.72
2022-09-14T17:51:31.507Z,100757.34
2022-09-14T17:54:00.291Z,100750.72
2022-09-14T17:56:28.621Z,100753.06
2022-09-14T17:59:01.719Z,100762.88
2022-09-14T18:01:28.937Z,100758.22
2022-09-14T18:03:58.909Z,100753.13
2022-09-14T18:06:31.514Z,100760.34
2022-09-14T18:09:00.386Z,100761.28
2022-09-14T18:11:28.152Z,100762.34
2022-09-14T18:13:54.998Z,100760.09
2022-09-14T18:16:22.947Z,100772.59
2022-09-14T18:18:49.670Z,100768.78
2022-09-14T18:21:18.493Z,100779.97
2022-09-14T18:23:49.964Z,100776.16
2022-09-14T18:26:17.569Z,100780.19
2022-09-14T18:28:44.782Z,100775.59
2022-09-14T18:31:13.925Z,100778.25
2022-09-14T18:33:40.554Z,100785.13
2022-09-14T18:36:07.379Z,100780.53
2022-09-14T18:38:33.994Z,100784.94
2022-09-14T18:41:08.413Z,100782.75
2022-09-14T18:43:35.893Z,100781.53
2022-09-14T18:46:07.069Z,100785.41
2022-09-14T18:48:34.844Z,100791.41
2022-09-14T18:51:03.819Z,100794.00
2022-09-14T18:53:30.832Z,100786.38
2022-09-14T18:56:17.612Z,100783.25
2022-09-14T18:58:45.982Z,100787.44
2022-09-14T19:01:13.849Z,100780.94
2022-09-14T19:03:42.393Z,100780.41
2022-09-14T19:06:14.512Z,100786.66
2022-09-14T19:08:41.918Z,100779.84
2022-09-14T19:11:23.271Z,100785.38
2022-09-14T19:13:55.938Z,100787.03
2022-09-14T19:16:22.455Z,100791.31
2022-09-14T19:18:49.838Z,100790.50
2022-09-14T19:21:23.813Z,100788.63
2022-09-14T19:24:05.526Z,100798.50
2022-09-14T19:26:35.855Z,100795.34
2022-09-14T19:29:03.677Z,100799.28
2022-09-14T19:31:30.885Z,100797.44
2022-09-14T19:33:59.057Z,100806.00
2022-09-14T19:36:27.369Z,100800.69
2022-09-14T19:38:57.252Z,100801.72
2022-09-14T19:41:23.828Z,100802.75
2022-09-14T19:43:50.780Z,100804.88
2022-09-14T19:46:19.703Z,100796.53
2022-09-14T19:48:47.253Z,100803.94
2022-09-14T19:51:19.597Z,100793.75
2022-09-14T19:53:48.782Z,100799.78
2022-09-14T19:56:17.645Z,100798.63
2022-09-14T19:58:46.906Z,100798.75
2022-09-14T20:01:15.476Z,100797.25
2022-09-14T20:03:43.172Z,100799.47
2022-09-14T20:06:19.130Z,100807.31
2022-09-14T20:08:46.792Z,100812.75
2022-09-14T20:11:19.650Z,100817.72
2022-09-14T20:13:48.380Z,100817.25
2022-09-14T20:16:18.316Z,100813.69
2022-09-14T20:18:46.608Z,100818.66
2022-09-14T20:21:21.268Z,100817.69
2022-09-14T20:24:11.570Z,100817.31
2022-09-14T20:26:34.786Z,100817.41
2022-09-14T20:29:01.725Z,100810.38
2022-09-14T20:31:29.575Z,100809.41
2022-09-14T20:33:57.371Z,100823.41
2022-09-14T20:36:25.287Z,100820.81
2022-09-14T20:38:54.640Z,100825.22
2022-09-14T20:41:23.604Z,100823.44
2022-09-14T20:43:50.758Z,100828.16
2022-09-14T20:46:24.494Z,100829.22
2022-09-14T20:48:51.858Z,100825.94
2022-09-14T20:51:20.531Z,100828.63
2022-09-14T20:53:47.883Z,100827.25
2022-09-14T20:56:17.061Z,100832.75
2022-09-14T20:58:43.818Z,100824.44
2022-09-14T21:01:11.927Z,100831.81
2022-09-14T21:03:42.794Z,100839.56
2022-09-14T21:06:13.040Z,100838.56
2022-09-14T21:08:40.536Z,100834.25
2022-09-14T21:11:12.878Z,100839.34
2022-09-14T21:13:39.759Z,100846.28
2022-09-14T21:16:09.901Z,100845.47
2022-09-14T21:18:36.567Z,100844.66
2022-09-14T21:21:15.501Z,100839.81
2022-09-14T21:23:42.512Z,100838.84
2022-09-14T21:26:10.776Z,100847.13
2022-09-14T21:28:39.187Z,100853.09
2022-09-14T21:31:17.468Z,100846.25
2022-09-14T21:33:46.301Z,100853.47
2022-09-14T21:36:16.170Z,100849.84
2022-09-14T21:38:43.215Z,100845.22
2022-09-14T21:41:11.594Z,100851.59
2022-09-14T21:43:40.156Z,100842.91
2022-09-14T21:46:08.034Z,100845.41
2022-09-14T21:48:36.198Z,100839.13
2022-09-14T21:51:07.193Z,100838.16
2022-09-14T21:53:34.541Z,100836.63
2022-09-14T21:56:05.680Z,100837.69
2022-09-14T21:58:33.010Z,100837.53
2022-09-14T22:01:01.354Z,100841.44
2022-09-14T22:03:28.684Z,100844.75
2022-09-14T22:05:56.853Z,100841.72
2022-09-14T22:08:23.751Z,100842.56
2022-09-14T22:10:50.233Z,100840.38
2022-09-14T22:13:16.924Z,100846.91
2022-09-14T22:15:43.482Z,100847.13
2022-09-14T22:18:10.032Z,100849.41
2022-09-14T22:20:36.458Z,100853.06
2022-09-14T22:23:03.167Z,100852.50
2022-09-14T22:25:30.240Z,100849.84
2022-09-14T22:27:56.708Z,100856.16
2022-09-14T22:30:23.182Z,100842.88
2022-09-14T22:32:49.614Z,100848.19
2022-09-14T22:35:16.101Z,100853.31
2022-09-14T22:37:42.550Z,100845.91
2022-09-14T22:40:09.703Z,100849.19
2022-09-14T22:42:37.107Z,100853.69
2022-09-14T22:45:03.811Z,100845.72
2022-09-14T22:47:30.309Z,100851.03
2022-09-14T22:49:56.735Z,100857.13
2022-09-14T22:52:23.909Z,100860.59
2022-09-14T22:54:50.390Z,100863.06
2022-09-14T22:57:16.845Z,100854.50
2022-09-14T22:59:43.330Z,100863.25
2022-09-14T23:02:09.802Z,100854.72
2022-09-14T23:04:36.500Z,100856.34
2022-09-14T23:07:04.239Z,100863.25
2022-09-14T23:09:30.721Z,100862.81
2022-09-14T23:11:57.163Z,100858.94
2022-09-14T23:14:24.075Z,100868.50
2022-09-14T23:16:50.657Z,100867.28
2022-09-14T23:19:18.252Z,100866.25
2022-09-14T23:21:45.803Z,100869.84
2022-09-14T23:24:12.285Z,100868.84
2022-09-14T23:26:39.086Z,100874.16
2022-09-14T23:29:09.182Z,100873.94
2022-09-14T23:31:35.785Z,100879.03
2022-09-14T23:34:04.471Z,100873.50
2022-09-14T23:36:31.371Z,100874.31
2022-09-14T23:38:57.856Z,100887.34
2022-09-14T23:41:25.983Z,100887.72
2022-09-14T23:43:52.597Z,100885.91
2022-09-14T23:46:20.132Z,100893.88
2022-09-14T23:48:46.965Z,100893.03
2022-09-14T23:51:14.309Z,100884.06
2022-09-14T23:53:41.873Z,100884.50
2022-09-14T23:56:09.474Z,100874.06
2022-09-14T23:58:36.110Z,100880.66
